ADDS METAR Data INFO
IDs: Format: Raw Decoded Include TAF

Data at: 0937 UTC 17 Oct 2017

KGNB 170920Z AUTO 00000KT 10SM CLR M06/M13 A3050 RMK AO2 T10601127
KGNB 170900Z AUTO 00000KT 10SM CLR M05/M13 A3050 RMK AO2 T10501130
KGNB 170840Z AUTO 00000KT 10SM CLR M04/M13 A3050 RMK AO2 T10401130
KGNB 170820Z AUTO 00000KT 10SM CLR M05/M13 A3050 RMK AO2 T10491127
KGNB 170800Z AUTO 00000KT 10SM CLR M03/M13 A3050 RMK AO2 T10271128
KGNB 170740Z AUTO 11003KT 10SM CLR M03/M13 A3050 RMK AO2 T10261127
KGNB 170720Z AUTO 08003KT 10SM CLR M04/M13 A3050 RMK AO2 T10361128
KGNB 170700Z AUTO 00000KT 10SM CLR 00/M13 A3050 RMK AO2 T10041129
KGNB 170640Z AUTO 00000KT 10SM CLR M01/M13 A3050 RMK AO2 T10101130
KGNB 170620Z AUTO 15004KT 10SM CLR M02/M13 A3050 RMK AO2 T10171130
KGNB 170600Z AUTO 00000KT 10SM CLR M02/M12 A3050 RMK AO2 T10201125
KGNB 170540Z AUTO 00000KT 10SM CLR 00/M11 A3049 RMK AO2 T00021115
KGNB 170520Z AUTO 00000KT 10SM CLR 00/M12 A3049 RMK AO2 T00031121
KGNB 170500Z AUTO 00000KT 10SM CLR 01/M13 A3049 RMK AO2 T00051131
KGNB 170440Z AUTO 00000KT 10SM CLR 01/M14 A3049 RMK AO2 T00081137
KGNB 170420Z AUTO 14004KT 10SM CLR 01/M14 A3049 RMK AO2 T00141142
KGNB 170400Z AUTO 05006KT 10SM CLR 01/M13 A3047 RMK AO2 T00121135
KGNB 170340Z AUTO 15004KT 10SM CLR 03/M13 A3047 RMK AO2 T00321135
KGNB 170320Z AUTO 13007KT 10SM CLR 04/M14 A3047 RMK AO2 T00431139
KGNB 170300Z AUTO 14005KT 10SM CLR 05/M14 A3046 RMK AO2 T00481145
KGNB 170240Z AUTO 08006KT 10SM CLR 04/M14 A3046 RMK AO2 T00431136
KGNB 170220Z AUTO 13004KT 10SM CLR 06/M14 A3045 RMK AO2 T00611141
KGNB 170200Z AUTO 19003KT 10SM CLR 08/M14 A3045 RMK AO2 T00781143
KGNB 170140Z AUTO 20003KT 10SM CLR 08/M15 A3045 RMK AO2 T00771152
KGNB 170120Z AUTO 24004G08KT 10SM CLR 12/M17 A3045 RMK AO2 T01221171
KGNB 170100Z AUTO 27004KT 10SM CLR 10/M16 A3044 RMK AO2 T01031165
KGNB 170045Z AUTO 32003KT 10SM CLR 10/M16 A3043 RMK AO2 T01041162
KGNB 170025Z AUTO 33005KT 10SM CLR 11/M15 A3043 RMK AO2 T01121154
KGNB 162350Z AUTO 30008KT 10SM CLR 16/M15 A3042 RMK AO2 T01551154 10178 20094
KGNB 162340Z AUTO 28007G14KT 10SM CLR 16/M16 A3042 RMK AO2 T01601156
KGNB 162320Z AUTO 26009KT 230V290 10SM CLR 17/M15 A3041 RMK AO2 T01671153
KGNB 162300Z AUTO 26008G16KT 10SM CLR 17/M15 A3041 RMK AO2 T01731152
KGNB 162240Z AUTO 28014KT 10SM CLR 17/M16 A3041 RMK AO2 T01721157
KGNB 162220Z AUTO 27007G14KT 10SM CLR 17/M16 A3041 RMK AO2 T01731157
KGNB 162200Z AUTO 26011G15KT 10SM CLR 18/M16 A3043 RMK AO2 T01771158
KGNB 162140Z AUTO 25012KT 10SM CLR 18/M15 A3042 RMK AO2 T01771155
KGNB 162120Z AUTO 26012G17KT 230V290 10SM CLR 18/M16 A3042 RMK AO2 T01771158
KGNB 162100Z AUTO 24012G20KT 10SM CLR 18/M17 A3043 RMK AO2 T01751169
KGNB 162040Z AUTO 25012G16KT 10SM CLR 17/M17 A3043 RMK AO2 T01701170
KGNB 162020Z AUTO 24013G18KT 10SM CLR 17/M17 A3044 RMK AO2 T01731169
KGNB 162000Z AUTO 26010G16KT 10SM CLR 17/M18 A3045 RMK AO2 T01681176
KGNB 161940Z AUTO 26010G15KT 10SM CLR 17/M17 A3047 RMK AO2 T01671175
KGNB 161920Z AUTO 26010KT 10SM CLR 16/M16 A3047 RMK AO2 T01561164
KGNB 161900Z AUTO 28003KT 10SM CLR 14/M15 A3049 RMK AO2 T01431146
KGNB 161840Z AUTO 24003KT 10SM CLR 13/M13 A3050 RMK AO2 T01301135
KGNB 161825Z AUTO 26003KT 10SM CLR 11/M11 A3051 RMK AO2 T01141113
KGNB 161800Z AUTO 00000KT 10SM CLR 10/M09 A3052 RMK AO2 T00951093
KGNB 161745Z AUTO 00000KT 10SM CLR 07/M09 A3053 RMK AO2 T00741090
KGNB 161725Z AUTO 21003KT 10SM CLR 07/M08 A3054 RMK AO2 T00701078
KGNB 161610Z AUTO 00000KT 10SM CLR 01/M08 A3056 RMK AO2 T00081076
KGNB 161600Z AUTO 03003KT 10SM CLR 00/M08 A3057 RMK AO2 T00021076
KGNB 161540Z AUTO 00000KT 10SM CLR M02/M08 A3057 RMK AO2 T10181082
KGNB 161520Z AUTO 00000KT 10SM CLR M03/M09 A3057 RMK AO2 T10341091
KGNB 161500Z AUTO 00000KT 10SM CLR M07/M11 A3058 RMK AO2 T10671107
KGNB 161440Z AUTO 00000KT 10SM CLR M06/M10 A3057 RMK AO2 T10641105
KGNB 161420Z AUTO 00000KT 10SM CLR M07/M11 A3057 RMK AO2 T10731106
KGNB 161400Z AUTO 00000KT 10SM CLR M08/M11 A3055 RMK AO2 T10771110
KGNB 161345Z AUTO 00000KT 10SM CLR M08/M11 A3055 RMK AO2 T10761110
KGNB 161320Z AUTO 00000KT 10SM CLR M07/M11 A3055 RMK AO2 T10721108
KGNB 161300Z AUTO 13003KT 10SM CLR M08/M11 A3055 RMK AO2 T10771112
KGNB 161240Z AUTO 00000KT 10SM CLR M07/M11 A3056 RMK AO2 T10671107
KGNB 161220Z AUTO 00000KT 10SM CLR M06/M11 A3056 RMK AO2 T10641106
KGNB 161200Z AUTO 00000KT 10SM CLR M07/M11 A3055 RMK AO2 T10731112
KGNB 161145Z AUTO 00000KT 10SM CLR M06/M11 A3056 RMK AO2 T10651106
KGNB 161125Z AUTO 11003KT 10SM CLR M06/M11 A3056 RMK AO2 T10621107
KGNB 161040Z AUTO 00000KT 10SM CLR M06/M11 A3056 RMK AO2 T10611106
KGNB 161020Z AUTO 00000KT 10SM CLR M05/M10 A3056 RMK AO2 T10551105
KGNB 161005Z AUTO 00000KT 10SM CLR M06/M11 A3056 RMK AO2 T10651109
KGNB 160940Z AUTO 00000KT 10SM CLR M05/M10 A3056 RMK AO2 T10491105
KGNB 160920Z AUTO 00000KT 10SM CLR M04/M10 A3056 RMK AO2 T10411105
KGNB 160900Z AUTO 00000KT 10SM CLR M05/M10 A3056 RMK AO2 T10461105
KGNB 160845Z AUTO 00000KT 10SM CLR M06/M11 A3056 RMK AO2 T10571106
KGNB 160825Z AUTO 00000KT 10SM CLR M04/M10 A3056 RMK AO2 T10381103
KGNB 160805Z AUTO 00000KT 10SM CLR M05/M10 A3056 RMK AO2 T10461101
KGNB 160745Z AUTO 00000KT 10SM CLR M05/M10 A3056 RMK AO2 T10491105
KGNB 160725Z AUTO 15003KT 10SM CLR M04/M10 A3056 RMK AO2 T10381103
KGNB 160700Z AUTO 13004KT 10SM CLR M03/M10 A3056 RMK AO2 T10271101
KGNB 160640Z AUTO 00000KT 10SM CLR M03/M11 A3057 RMK AO2 T10331106
KGNB 160625Z AUTO 00000KT 10SM CLR M03/M10 A3057 RMK AO2 T10271102
KGNB 160600Z AUTO 10003KT 10SM CLR M02/M10 A3057 RMK AO2 T10251101
KGNB 160545Z AUTO 00000KT 10SM CLR M02/M10 A3057 RMK AO2 T10161100
KGNB 160525Z AUTO 08003KT 10SM CLR M03/M10 A3057 RMK AO2 T10271101
KGNB 160505Z AUTO 09003KT 10SM CLR M01/M10 A3057 RMK AO2 T10151101
KGNB 160445Z AUTO 08003KT 10SM CLR M02/M10 A3057 RMK AO2 T10181101
KGNB 160425Z AUTO 05003KT 10SM CLR M01/M10 A3057 RMK AO2 T10061103
KGNB 160400Z AUTO 00000KT 10SM CLR 00/M10 A3056 RMK AO2 T10031104
KGNB 160340Z AUTO 00000KT 10SM CLR 00/M10 A3056 RMK AO2 T10011101
KGNB 160320Z AUTO 07003KT 10SM CLR 01/M11 A3055 RMK AO2 T00061106
KGNB 160300Z AUTO 13003KT 10SM CLR 01/M11 A3055 RMK AO2 T00111107
KGNB 160240Z AUTO 09005KT 10SM CLR 03/M10 A3054 RMK AO2 T00251102
KGNB 160220Z AUTO 00000KT 10SM CLR 02/M10 A3054 RMK AO2 T00171104
KGNB 160200Z AUTO 07004KT 10SM CLR 02/M10 A3054 RMK AO2 T00181104
KGNB 160140Z AUTO 14004KT 10SM CLR 04/M10 A3053 RMK AO2 T00391105
KGNB 160120Z AUTO 09006KT 10SM CLR 06/M11 A3052 RMK AO2 T00621110
KGNB 160100Z AUTO 09003KT 10SM CLR 06/M11 A3052 RMK AO2 T00551111
KGNB 160045Z AUTO 00000KT 10SM CLR 08/M12 A3052 RMK AO2 T00751116
KGNB 160025Z AUTO 30004KT 10SM CLR 10/M11 A3052 RMK AO2 T01021115
KGNB 152350Z AUTO 29007KT 10SM CLR 12/M12 A3052 RMK AO2 T01221118 10136 20042
KGNB 152340Z AUTO 29007KT 10SM CLR 12/M12 A3052 RMK AO2 T01241117
KGNB 152320Z AUTO 28007KT 10SM CLR 13/M12 A3052 RMK AO2 T01251120
KGNB 152300Z AUTO 26003KT 10SM CLR 13/M12 A3052 RMK AO2 T01311119
KGNB 152240Z AUTO 28004KT 10SM CLR 14/M12 A3053 RMK AO2 T01351119
KGNB 152220Z AUTO 27007KT 10SM CLR 13/M12 A3053 RMK AO2 T01311122
KGNB 152200Z AUTO 30005KT 10SM CLR 13/M12 A3053 RMK AO2 T01321122
KGNB 152140Z AUTO 00000KT 10SM CLR 13/M12 A3054 RMK AO2 T01281124